sensor_id;sensor_type;location;lat;lon;timestamp;P1;durP1;ratioP1;P2;durP2;ratioP2
51475;SDS011;37554;50.362;7.568;2022-11-20T00:00:46;3.13;;;1.88;;
51475;SDS011;37554;50.362;7.568;2022-11-20T00:03:12;2.80;;;2.00;;
51475;SDS011;37554;50.362;7.568;2022-11-20T00:05:37;2.38;;;1.88;;
51475;SDS011;37554;50.362;7.568;2022-11-20T00:08:03;2.13;;;1.92;;
51475;SDS011;37554;50.362;7.568;2022-11-20T00:10:29;2.25;;;1.85;;
51475;SDS011;37554;50.362;7.568;2022-11-20T00:12:55;4.40;;;2.20;;
51475;SDS011;37554;50.362;7.568;2022-11-20T00:15:22;2.17;;;1.98;;
51475;SDS011;37554;50.362;7.568;2022-11-20T00:17:48;3.42;;;2.35;;
51475;SDS011;37554;50.362;7.568;2022-11-20T00:20:13;2.97;;;2.22;;
51475;SDS011;37554;50.362;7.568;2022-11-20T00:22:39;2.80;;;2.10;;
51475;SDS011;37554;50.362;7.568;2022-11-20T00:25:05;3.22;;;2.28;;
51475;SDS011;37554;50.362;7.568;2022-11-20T00:27:31;3.45;;;2.40;;
51475;SDS011;37554;50.362;7.568;2022-11-20T00:29:56;2.25;;;2.05;;
51475;SDS011;37554;50.362;7.568;2022-11-20T00:32:22;2.25;;;2.05;;
51475;SDS011;37554;50.362;7.568;2022-11-20T00:34:47;3.50;;;2.17;;
51475;SDS011;37554;50.362;7.568;2022-11-20T00:37:13;2.20;;;2.00;;
51475;SDS011;37554;50.362;7.568;2022-11-20T00:39:39;2.63;;;1.90;;
51475;SDS011;37554;50.362;7.568;2022-11-20T00:42:04;2.22;;;2.03;;
51475;SDS011;37554;50.362;7.568;2022-11-20T00:44:30;2.83;;;1.98;;
51475;SDS011;37554;50.362;7.568;2022-11-20T00:46:55;2.47;;;2.00;;
51475;SDS011;37554;50.362;7.568;2022-11-20T00:49:21;2.30;;;2.10;;
51475;SDS011;37554;50.362;7.568;2022-11-20T00:51:46;3.03;;;2.00;;
51475;SDS011;37554;50.362;7.568;2022-11-20T00:54:12;2.67;;;2.40;;
51475;SDS011;37554;50.362;7.568;2022-11-20T00:56:38;2.22;;;2.03;;
51475;SDS011;37554;50.362;7.568;2022-11-20T00:59:03;2.20;;;2.00;;
51475;SDS011;37554;50.362;7.568;2022-11-20T01:01:29;2.63;;;1.80;;
51475;SDS011;37554;50.362;7.568;2022-11-20T01:03:56;2.75;;;2.30;;
51475;SDS011;37554;50.362;7.568;2022-11-20T01:06:27;2.40;;;2.08;;
51475;SDS011;37554;50.362;7.568;2022-11-20T01:08:59;2.40;;;2.20;;
51475;SDS011;37554;50.362;7.568;2022-11-20T01:11:27;2.85;;;2.40;;
51475;SDS011;37554;50.362;7.568;2022-11-20T01:13:58;3.20;;;2.20;;
51475;SDS011;37554;50.362;7.568;2022-11-20T01:16:26;2.58;;;2.35;;
51475;SDS011;37554;50.362;7.568;2022-11-20T01:18:53;2.95;;;2.60;;
51475;SDS011;37554;50.362;7.568;2022-11-20T01:21:23;3.53;;;2.45;;
51475;SDS011;37554;50.362;7.568;2022-11-20T01:23:51;2.60;;;2.40;;
51475;SDS011;37554;50.362;7.568;2022-11-20T01:26:19;2.58;;;2.38;;
51475;SDS011;37554;50.362;7.568;2022-11-20T01:28:47;2.50;;;2.30;;
51475;SDS011;37554;50.362;7.568;2022-11-20T01:31:14;2.47;;;2.28;;
51475;SDS011;37554;50.362;7.568;2022-11-20T01:33:42;2.47;;;2.28;;
51475;SDS011;37554;50.362;7.568;2022-11-20T01:36:09;2.53;;;2.33;;
51475;SDS011;37554;50.362;7.568;2022-11-20T01:38:35;2.42;;;2.20;;
51475;SDS011;37554;50.362;7.568;2022-11-20T01:41:01;2.75;;;2.47;;
51475;SDS011;37554;50.362;7.568;2022-11-20T01:43:27;2.38;;;2.17;;
51475;SDS011;37554;50.362;7.568;2022-11-20T01:46:00;2.63;;;2.35;;
51475;SDS011;37554;50.362;7.568;2022-11-20T01:51:32;2.25;;;2.05;;
51475;SDS011;37554;50.362;7.568;2022-11-20T01:54:11;2.97;;;2.67;;
51475;SDS011;37554;50.362;7.568;2022-11-20T01:56:48;2.78;;;2.58;;
51475;SDS011;37554;50.362;7.568;2022-11-20T01:59:18;2.72;;;2.53;;
51475;SDS011;37554;50.362;7.568;2022-11-20T02:01:45;2.58;;;2.38;;
51475;SDS011;37554;50.362;7.568;2022-11-20T02:04:11;2.58;;;2.17;;
51475;SDS011;37554;50.362;7.568;2022-11-20T02:06:42;2.53;;;2.33;;
51475;SDS011;37554;50.362;7.568;2022-11-20T02:09:12;2.90;;;2.60;;
51475;SDS011;37554;50.362;7.568;2022-11-20T02:11:38;3.03;;;2.40;;
51475;SDS011;37554;50.362;7.568;2022-11-20T02:14:04;2.80;;;2.60;;
51475;SDS011;37554;50.362;7.568;2022-11-20T02:16:30;2.95;;;2.63;;
51475;SDS011;37554;50.362;7.568;2022-11-20T02:19:01;3.10;;;2.75;;
51475;SDS011;37554;50.362;7.568;2022-11-20T02:21:37;3.28;;;2.63;;
51475;SDS011;37554;50.362;7.568;2022-11-20T02:24:10;2.97;;;2.78;;
51475;SDS011;37554;50.362;7.568;2022-11-20T02:29:15;2.67;;;2.47;;
51475;SDS011;37554;50.362;7.568;2022-11-20T02:31:44;3.13;;;2.83;;
51475;SDS011;37554;50.362;7.568;2022-11-20T02:34:10;3.13;;;2.80;;
51475;SDS011;37554;50.362;7.568;2022-11-20T02:36:36;2.95;;;2.67;;
51475;SDS011;37554;50.362;7.568;2022-11-20T02:39:04;3.20;;;3.00;;
51475;SDS011;37554;50.362;7.568;2022-11-20T02:41:34;2.88;;;2.60;;
51475;SDS011;37554;50.362;7.568;2022-11-20T02:44:02;2.60;;;2.40;;
51475;SDS011;37554;50.362;7.568;2022-11-20T02:46:28;2.83;;;2.63;;
51475;SDS011;37554;50.362;7.568;2022-11-20T02:48:54;3.08;;;2.78;;
51475;SDS011;37554;50.362;7.568;2022-11-20T02:51:20;2.58;;;2.38;;
51475;SDS011;37554;50.362;7.568;2022-11-20T02:53:46;2.72;;;2.53;;
51475;SDS011;37554;50.362;7.568;2022-11-20T02:56:11;2.75;;;2.55;;
51475;SDS011;37554;50.362;7.568;2022-11-20T02:58:37;2.47;;;2.28;;
51475;SDS011;37554;50.362;7.568;2022-11-20T03:01:03;2.80;;;2.60;;
51475;SDS011;37554;50.362;7.568;2022-11-20T03:03:28;2.67;;;2.47;;
51475;SDS011;37554;50.362;7.568;2022-11-20T03:05:54;2.85;;;2.53;;
51475;SDS011;37554;50.362;7.568;2022-11-20T03:08:19;2.70;;;2.50;;
51475;SDS011;37554;50.362;7.568;2022-11-20T03:10:45;2.90;;;2.70;;
51475;SDS011;37554;50.362;7.568;2022-11-20T03:13:11;2.83;;;2.63;;
51475;SDS011;37554;50.362;7.568;2022-11-20T03:15:36;3.05;;;2.75;;
51475;SDS011;37554;50.362;7.568;2022-11-20T03:18:02;5.40;;;2.90;;
51475;SDS011;37554;50.362;7.568;2022-11-20T03:20:28;2.90;;;2.70;;
51475;SDS011;37554;50.362;7.568;2022-11-20T03:22:54;2.83;;;2.63;;
51475;SDS011;37554;50.362;7.568;2022-11-20T03:25:20;2.95;;;2.70;;
51475;SDS011;37554;50.362;7.568;2022-11-20T03:27:46;3.30;;;3.00;;
51475;SDS011;37554;50.362;7.568;2022-11-20T03:30:12;2.67;;;2.47;;
51475;SDS011;37554;50.362;7.568;2022-11-20T03:32:38;3.00;;;2.80;;
51475;SDS011;37554;50.362;7.568;2022-11-20T03:35:04;2.55;;;2.35;;
51475;SDS011;37554;50.362;7.568;2022-11-20T03:37:29;3.17;;;2.97;;
51475;SDS011;37554;50.362;7.568;2022-11-20T03:39:56;3.17;;;2.88;;
51475;SDS011;37554;50.362;7.568;2022-11-20T03:42:21;2.97;;;2.78;;
51475;SDS011;37554;50.362;7.568;2022-11-20T03:45:06;3.38;;;3.03;;
51475;SDS011;37554;50.362;7.568;2022-11-20T03:47:32;2.65;;;2.45;;
51475;SDS011;37554;50.362;7.568;2022-11-20T03:49:58;2.80;;;2.60;;
51475;SDS011;37554;50.362;7.568;2022-11-20T03:52:23;2.90;;;2.70;;
51475;SDS011;37554;50.362;7.568;2022-11-20T03:54:49;2.92;;;2.70;;
51475;SDS011;37554;50.362;7.568;2022-11-20T03:57:14;2.97;;;2.75;;
51475;SDS011;37554;50.362;7.568;2022-11-20T03:59:40;3.20;;;2.90;;
51475;SDS011;37554;50.362;7.568;2022-11-20T04:02:06;3.17;;;2.88;;
51475;SDS011;37554;50.362;7.568;2022-11-20T04:04:31;3.13;;;2.83;;
51475;SDS011;37554;50.362;7.568;2022-11-20T04:06:57;2.90;;;2.70;;
51475;SDS011;37554;50.362;7.568;2022-11-20T04:09:22;2.95;;;2.70;;
51475;SDS011;37554;50.362;7.568;2022-11-20T04:11:48;2.80;;;2.60;;
51475;SDS011;37554;50.362;7.568;2022-11-20T04:14:14;2.67;;;2.47;;
51475;SDS011;37554;50.362;7.568;2022-11-20T04:16:41;2.90;;;2.70;;
51475;SDS011;37554;50.362;7.568;2022-11-20T04:19:09;3.13;;;2.83;;
51475;SDS011;37554;50.362;7.568;2022-11-20T04:21:39;3.00;;;2.80;;
51475;SDS011;37554;50.362;7.568;2022-11-20T04:24:04;2.65;;;2.45;;
51475;SDS011;37554;50.362;7.568;2022-11-20T04:26:30;2.88;;;2.67;;
51475;SDS011;37554;50.362;7.568;2022-11-20T04:28:57;3.00;;;2.75;;
51475;SDS011;37554;50.362;7.568;2022-11-20T04:31:27;3.35;;;3.05;;
51475;SDS011;37554;50.362;7.568;2022-11-20T04:33:54;2.83;;;2.60;;
51475;SDS011;37554;50.362;7.568;2022-11-20T04:36:23;3.30;;;3.00;;
51475;SDS011;37554;50.362;7.568;2022-11-20T04:38:51;2.80;;;2.60;;
51475;SDS011;37554;50.362;7.568;2022-11-20T04:41:19;3.00;;;2.80;;
51475;SDS011;37554;50.362;7.568;2022-11-20T04:43:46;2.92;;;2.72;;
51475;SDS011;37554;50.362;7.568;2022-11-20T04:46:16;3.50;;;3.13;;
51475;SDS011;37554;50.362;7.568;2022-11-20T04:48:42;4.45;;;2.72;;
51475;SDS011;37554;50.362;7.568;2022-11-20T04:51:08;2.67;;;2.47;;
51475;SDS011;37554;50.362;7.568;2022-11-20T04:53:33;2.95;;;2.72;;
51475;SDS011;37554;50.362;7.568;2022-11-20T04:56:03;3.50;;;3.20;;
51475;SDS011;37554;50.362;7.568;2022-11-20T04:58:30;4.50;;;2.75;;
51475;SDS011;37554;50.362;7.568;2022-11-20T05:01:06;3.05;;;2.80;;
51475;SDS011;37554;50.362;7.568;2022-11-20T05:03:37;3.08;;;2.88;;
51475;SDS011;37554;50.362;7.568;2022-11-20T05:06:03;2.92;;;2.72;;
51475;SDS011;37554;50.362;7.568;2022-11-20T05:08:30;4.20;;;2.83;;
51475;SDS011;37554;50.362;7.568;2022-11-20T05:11:00;3.95;;;2.85;;
51475;SDS011;37554;50.362;7.568;2022-11-20T05:13:27;3.17;;;2.88;;
51475;SDS011;37554;50.362;7.568;2022-11-20T05:15:52;2.80;;;2.60;;
51475;SDS011;37554;50.362;7.568;2022-11-20T05:18:18;3.42;;;3.13;;
51475;SDS011;37554;50.362;7.568;2022-11-20T05:20:44;3.58;;;3.28;;
51475;SDS011;37554;50.362;7.568;2022-11-20T05:23:09;3.08;;;2.88;;
51475;SDS011;37554;50.362;7.568;2022-11-20T05:25:35;3.20;;;2.97;;
51475;SDS011;37554;50.362;7.568;2022-11-20T05:28:00;2.97;;;2.78;;
51475;SDS011;37554;50.362;7.568;2022-11-20T05:30:26;3.25;;;2.75;;
51475;SDS011;37554;50.362;7.568;2022-11-20T05:32:51;3.30;;;3.00;;
51475;SDS011;37554;50.362;7.568;2022-11-20T05:35:17;3.22;;;2.92;;
51475;SDS011;37554;50.362;7.568;2022-11-20T05:37:42;3.30;;;3.00;;
51475;SDS011;37554;50.362;7.568;2022-11-20T05:40:08;3.33;;;3.05;;
51475;SDS011;37554;50.362;7.568;2022-11-20T05:42:34;3.40;;;3.10;;
51475;SDS011;37554;50.362;7.568;2022-11-20T05:45:01;3.33;;;3.03;;
51475;SDS011;37554;50.362;7.568;2022-11-20T05:47:31;3.15;;;2.83;;
51475;SDS011;37554;50.362;7.568;2022-11-20T05:49:58;2.50;;;2.30;;
51475;SDS011;37554;50.362;7.568;2022-11-20T05:52:23;2.67;;;2.47;;
51475;SDS011;37554;50.362;7.568;2022-11-20T05:54:49;2.88;;;2.67;;
51475;SDS011;37554;50.362;7.568;2022-11-20T05:57:15;2.92;;;2.72;;
51475;SDS011;37554;50.362;7.568;2022-11-20T05:59:41;3.10;;;2.80;;
51475;SDS011;37554;50.362;7.568;2022-11-20T06:02:07;2.88;;;2.63;;
51475;SDS011;37554;50.362;7.568;2022-11-20T06:04:32;2.80;;;2.60;;
51475;SDS011;37554;50.362;7.568;2022-11-20T06:06:58;3.40;;;3.00;;
51475;SDS011;37554;50.362;7.568;2022-11-20T06:09:24;3.15;;;2.92;;
51475;SDS011;37554;50.362;7.568;2022-11-20T06:11:49;2.97;;;2.65;;
51475;SDS011;37554;50.362;7.568;2022-11-20T06:14:15;3.40;;;3.10;;
51475;SDS011;37554;50.362;7.568;2022-11-20T06:16:40;2.80;;;2.60;;
51475;SDS011;37554;50.362;7.568;2022-11-20T06:19:06;3.25;;;2.95;;
51475;SDS011;37554;50.362;7.568;2022-11-20T06:21:31;3.47;;;3.13;;
51475;SDS011;37554;50.362;7.568;2022-11-20T06:23:57;3.55;;;2.88;;
51475;SDS011;37554;50.362;7.568;2022-11-20T06:26:23;3.42;;;3.13;;
51475;SDS011;37554;50.362;7.568;2022-11-20T06:28:51;3.45;;;3.15;;
51475;SDS011;37554;50.362;7.568;2022-11-20T06:31:19;2.88;;;2.65;;
51475;SDS011;37554;50.362;7.568;2022-11-20T06:33:46;3.08;;;2.88;;
51475;SDS011;37554;50.362;7.568;2022-11-20T06:36:12;2.70;;;2.50;;
51475;SDS011;37554;50.362;7.568;2022-11-20T06:38:40;2.58;;;2.38;;
51475;SDS011;37554;50.362;7.568;2022-11-20T06:41:06;3.22;;;2.92;;
51475;SDS011;37554;50.362;7.568;2022-11-20T06:43:35;2.92;;;2.70;;
51475;SDS011;37554;50.362;7.568;2022-11-20T06:46:00;2.75;;;2.55;;
51475;SDS011;37554;50.362;7.568;2022-11-20T06:48:26;3.08;;;2.70;;
51475;SDS011;37554;50.362;7.568;2022-11-20T06:50:52;2.92;;;2.72;;
51475;SDS011;37554;50.362;7.568;2022-11-20T06:53:18;2.80;;;2.60;;
51475;SDS011;37554;50.362;7.568;2022-11-20T06:55:44;3.25;;;2.53;;
51475;SDS011;37554;50.362;7.568;2022-11-20T06:58:14;2.78;;;2.58;;
51475;SDS011;37554;50.362;7.568;2022-11-20T07:00:41;3.35;;;3.05;;
51475;SDS011;37554;50.362;7.568;2022-11-20T07:03:07;2.80;;;2.60;;
51475;SDS011;37554;50.362;7.568;2022-11-20T07:05:34;3.22;;;2.92;;
51475;SDS011;37554;50.362;7.568;2022-11-20T07:08:00;3.53;;;2.60;;
51475;SDS011;37554;50.362;7.568;2022-11-20T07:10:26;2.83;;;2.63;;
51475;SDS011;37554;50.362;7.568;2022-11-20T07:12:52;2.70;;;2.50;;
51475;SDS011;37554;50.362;7.568;2022-11-20T07:15:21;2.83;;;2.63;;
51475;SDS011;37554;50.362;7.568;2022-11-20T07:17:48;4.22;;;2.42;;
51475;SDS011;37554;50.362;7.568;2022-11-20T07:20:14;2.88;;;2.67;;
51475;SDS011;37554;50.362;7.568;2022-11-20T07:22:40;3.10;;;2.80;;
51475;SDS011;37554;50.362;7.568;2022-11-20T07:25:06;2.70;;;2.40;;
51475;SDS011;37554;50.362;7.568;2022-11-20T07:27:32;3.15;;;2.85;;
51475;SDS011;37554;50.362;7.568;2022-11-20T07:29:58;2.47;;;2.28;;
51475;SDS011;37554;50.362;7.568;2022-11-20T07:32:24;2.83;;;2.63;;
51475;SDS011;37554;50.362;7.568;2022-11-20T07:34:49;3.33;;;2.70;;
51475;SDS011;37554;50.362;7.568;2022-11-20T07:37:15;2.95;;;2.75;;
51475;SDS011;37554;50.362;7.568;2022-11-20T07:39:41;2.60;;;2.40;;
51475;SDS011;37554;50.362;7.568;2022-11-20T07:42:07;3.10;;;2.78;;
51475;SDS011;37554;50.362;7.568;2022-11-20T07:44:33;3.00;;;2.70;;
51475;SDS011;37554;50.362;7.568;2022-11-20T07:46:59;3.03;;;2.75;;
51475;SDS011;37554;50.362;7.568;2022-11-20T07:49:25;4.00;;;2.58;;
51475;SDS011;37554;50.362;7.568;2022-11-20T07:51:51;2.63;;;2.42;;
51475;SDS011;37554;50.362;7.568;2022-11-20T07:54:18;4.43;;;2.85;;
51475;SDS011;37554;50.362;7.568;2022-11-20T07:56:47;2.75;;;2.55;;
51475;SDS011;37554;50.362;7.568;2022-11-20T07:59:14;3.63;;;3.13;;
51475;SDS011;37554;50.362;7.568;2022-11-20T08:01:40;3.53;;;2.97;;
51475;SDS011;37554;50.362;7.568;2022-11-20T08:04:06;4.55;;;2.88;;
51475;SDS011;37554;50.362;7.568;2022-11-20T08:06:32;4.05;;;3.13;;
51475;SDS011;37554;50.362;7.568;2022-11-20T08:08:58;3.72;;;3.20;;
51475;SDS011;37554;50.362;7.568;2022-11-20T08:11:23;4.10;;;3.50;;
51475;SDS011;37554;50.362;7.568;2022-11-20T08:14:08;3.65;;;3.20;;
51475;SDS011;37554;50.362;7.568;2022-11-20T08:16:36;6.57;;;3.75;;
51475;SDS011;37554;50.362;7.568;2022-11-20T08:19:02;4.55;;;2.75;;
51475;SDS011;37554;50.362;7.568;2022-11-20T08:21:28;3.42;;;3.13;;
51475;SDS011;37554;50.362;7.568;2022-11-20T08:23:54;5.13;;;3.88;;
51475;SDS011;37554;50.362;7.568;2022-11-20T08:26:20;8.57;;;3.97;;
51475;SDS011;37554;50.362;7.568;2022-11-20T08:28:46;8.95;;;3.88;;
51475;SDS011;37554;50.362;7.568;2022-11-20T08:31:12;5.53;;;3.72;;
51475;SDS011;37554;50.362;7.568;2022-11-20T08:33:37;6.53;;;3.58;;
51475;SDS011;37554;50.362;7.568;2022-11-20T08:36:03;5.40;;;3.72;;
51475;SDS011;37554;50.362;7.568;2022-11-20T08:38:30;5.07;;;3.70;;
51475;SDS011;37554;50.362;7.568;2022-11-20T08:40:59;5.15;;;3.30;;
51475;SDS011;37554;50.362;7.568;2022-11-20T08:46:19;4.57;;;3.47;;
51475;SDS011;37554;50.362;7.568;2022-11-20T08:48:45;5.20;;;3.10;;
51475;SDS011;37554;50.362;7.568;2022-11-20T08:51:11;4.93;;;3.03;;
51475;SDS011;37554;50.362;7.568;2022-11-20T08:53:37;4.32;;;3.42;;
51475;SDS011;37554;50.362;7.568;2022-11-20T08:56:03;4.22;;;3.17;;
51475;SDS011;37554;50.362;7.568;2022-11-20T08:58:30;6.68;;;3.25;;
51475;SDS011;37554;50.362;7.568;2022-11-20T09:00:55;7.50;;;3.35;;
51475;SDS011;37554;50.362;7.568;2022-11-20T09:03:21;3.90;;;3.03;;
51475;SDS011;37554;50.362;7.568;2022-11-20T09:05:47;5.13;;;3.30;;
51475;SDS011;37554;50.362;7.568;2022-11-20T09:08:13;5.57;;;2.90;;
51475;SDS011;37554;50.362;7.568;2022-11-20T09:10:38;3.65;;;2.70;;
51475;SDS011;37554;50.362;7.568;2022-11-20T09:13:07;6.28;;;3.10;;
51475;SDS011;37554;50.362;7.568;2022-11-20T09:15:32;4.20;;;3.13;;
51475;SDS011;37554;50.362;7.568;2022-11-20T09:17:59;3.95;;;3.10;;
51475;SDS011;37554;50.362;7.568;2022-11-20T09:20:27;4.00;;;3.03;;
51475;SDS011;37554;50.362;7.568;2022-11-20T09:22:54;3.67;;;3.33;;
51475;SDS011;37554;50.362;7.568;2022-11-20T09:25:21;4.50;;;3.60;;
51475;SDS011;37554;50.362;7.568;2022-11-20T09:27:46;3.95;;;3.55;;
51475;SDS011;37554;50.362;7.568;2022-11-20T09:30:13;3.78;;;3.13;;
51475;SDS011;37554;50.362;7.568;2022-11-20T09:32:39;3.47;;;3.08;;
51475;SDS011;37554;50.362;7.568;2022-11-20T09:35:05;3.15;;;2.75;;
51475;SDS011;37554;50.362;7.568;2022-11-20T09:37:31;3.63;;;2.85;;
51475;SDS011;37554;50.362;7.568;2022-11-20T09:39:57;2.95;;;2.70;;
51475;SDS011;37554;50.362;7.568;2022-11-20T09:42:33;3.67;;;3.08;;
51475;SDS011;37554;50.362;7.568;2022-11-20T09:47:48;3.63;;;3.03;;
51475;SDS011;37554;50.362;7.568;2022-11-20T09:53:25;3.95;;;2.72;;
51475;SDS011;37554;50.362;7.568;2022-11-20T09:56:03;4.03;;;3.20;;
51475;SDS011;37554;50.362;7.568;2022-11-20T09:58:33;5.18;;;2.83;;
51475;SDS011;37554;50.362;7.568;2022-11-20T10:14:40;2.50;;;2.30;;
51475;SDS011;37554;50.362;7.568;2022-11-20T10:17:51;2.50;;;2.30;;
51475;SDS011;37554;50.362;7.568;2022-11-20T10:20:24;2.80;;;2.60;;
51475;SDS011;37554;50.362;7.568;2022-11-20T10:26:02;5.30;;;3.83;;
51475;SDS011;37554;50.362;7.568;2022-11-20T10:31:16;4.78;;;2.92;;
51475;SDS011;37554;50.362;7.568;2022-11-20T10:33:52;5.70;;;3.47;;
51475;SDS011;37554;50.362;7.568;2022-11-20T10:38:59;7.47;;;3.58;;
51475;SDS011;37554;50.362;7.568;2022-11-20T10:41:35;14.23;;;3.97;;
51475;SDS011;37554;50.362;7.568;2022-11-20T10:44:10;13.32;;;4.05;;
51475;SDS011;37554;50.362;7.568;2022-11-20T10:47:11;10.90;;;3.90;;
51475;SDS011;37554;50.362;7.568;2022-11-20T10:49:42;11.05;;;4.28;;
51475;SDS011;37554;50.362;7.568;2022-11-20T11:00:09;14.23;;;4.70;;
51475;SDS011;37554;50.362;7.568;2022-11-20T11:02:39;12.57;;;4.70;;
51475;SDS011;37554;50.362;7.568;2022-11-20T11:07:56;6.72;;;3.65;;
51475;SDS011;37554;50.362;7.568;2022-11-20T11:13:19;6.68;;;3.70;;
51475;SDS011;37554;50.362;7.568;2022-11-20T11:15:46;7.95;;;3.53;;
51475;SDS011;37554;50.362;7.568;2022-11-20T11:18:22;6.07;;;3.75;;
51475;SDS011;37554;50.362;7.568;2022-11-20T11:20:52;7.30;;;4.35;;
51475;SDS011;37554;50.362;7.568;2022-11-20T11:23:26;4.90;;;3.60;;
51475;SDS011;37554;50.362;7.568;2022-11-20T11:25:57;6.45;;;4.35;;
51475;SDS011;37554;50.362;7.568;2022-11-20T11:28:25;7.40;;;4.40;;
51475;SDS011;37554;50.362;7.568;2022-11-20T11:30:52;6.15;;;4.18;;
51475;SDS011;37554;50.362;7.568;2022-11-20T11:33:28;6.05;;;4.22;;
51475;SDS011;37554;50.362;7.568;2022-11-20T11:35:56;5.30;;;3.63;;
51475;SDS011;37554;50.362;7.568;2022-11-20T11:38:35;6.38;;;3.65;;
51475;SDS011;37554;50.362;7.568;2022-11-20T11:41:04;5.63;;;4.10;;
51475;SDS011;37554;50.362;7.568;2022-11-20T11:43:32;4.07;;;3.28;;
51475;SDS011;37554;50.362;7.568;2022-11-20T11:46:25;4.22;;;3.25;;
51475;SDS011;37554;50.362;7.568;2022-11-20T11:54:24;3.88;;;2.83;;
51475;SDS011;37554;50.362;7.568;2022-11-20T11:56:59;3.03;;;2.33;;
51475;SDS011;37554;50.362;7.568;2022-11-20T11:59:44;5.88;;;2.55;;
51475;SDS011;37554;50.362;7.568;2022-11-20T12:02:24;3.15;;;2.65;;
51475;SDS011;37554;50.362;7.568;2022-11-20T12:05:17;5.30;;;2.90;;
51475;SDS011;37554;50.362;7.568;2022-11-20T12:10:40;4.43;;;2.50;;
51475;SDS011;37554;50.362;7.568;2022-11-20T12:13:19;3.08;;;2.30;;
51475;SDS011;37554;50.362;7.568;2022-11-20T12:15:55;3.05;;;2.10;;
51475;SDS011;37554;50.362;7.568;2022-11-20T12:18:21;3.75;;;2.35;;
51475;SDS011;37554;50.362;7.568;2022-11-20T12:20:54;2.67;;;2.10;;
51475;SDS011;37554;50.362;7.568;2022-11-20T12:25:59;2.45;;;1.73;;
51475;SDS011;37554;50.362;7.568;2022-11-20T12:31:26;2.50;;;2.00;;
51475;SDS011;37554;50.362;7.568;2022-11-20T12:36:54;1.83;;;1.73;;
51475;SDS011;37554;50.362;7.568;2022-11-20T12:39:33;3.08;;;1.80;;
51475;SDS011;37554;50.362;7.568;2022-11-20T12:42:13;2.15;;;1.95;;
51475;SDS011;37554;50.362;7.568;2022-11-20T12:58:32;2.63;;;2.25;;
51475;SDS011;37554;50.362;7.568;2022-11-20T13:01:35;3.20;;;1.83;;
51475;SDS011;37554;50.362;7.568;2022-11-20T13:04:33;2.40;;;1.95;;
51475;SDS011;37554;50.362;7.568;2022-11-20T13:06:55;2.28;;;2.10;;
51475;SDS011;37554;50.362;7.568;2022-11-20T13:09:22;1.95;;;1.75;;
51475;SDS011;37554;50.362;7.568;2022-11-20T13:20:23;2.90;;;2.28;;
51475;SDS011;37554;50.362;7.568;2022-11-20T13:22:49;2.17;;;1.98;;
51475;SDS011;37554;50.362;7.568;2022-11-20T13:27:57;3.60;;;1.85;;
51475;SDS011;37554;50.362;7.568;2022-11-20T13:30:24;2.13;;;1.92;;
51475;SDS011;37554;50.362;7.568;2022-11-20T13:32:58;2.15;;;1.70;;
51475;SDS011;37554;50.362;7.568;2022-11-20T13:35:53;4.30;;;2.00;;
51475;SDS011;37554;50.362;7.568;2022-11-20T13:38:51;2.05;;;1.77;;
51475;SDS011;37554;50.362;7.568;2022-11-20T13:41:27;3.70;;;1.70;;
51475;SDS011;37554;50.362;7.568;2022-11-20T13:46:35;2.47;;;1.70;;
51475;SDS011;37554;50.362;7.568;2022-11-20T13:49:07;3.35;;;1.90;;
51475;SDS011;37554;50.362;7.568;2022-11-20T13:51:37;3.97;;;2.20;;
51475;SDS011;37554;50.362;7.568;2022-11-20T13:54:31;2.90;;;1.98;;
51475;SDS011;37554;50.362;7.568;2022-11-20T14:02:09;2.00;;;1.42;;
51475;SDS011;37554;50.362;7.568;2022-11-20T14:04:42;2.03;;;1.60;;
51475;SDS011;37554;50.362;7.568;2022-11-20T14:07:09;1.88;;;1.77;;
51475;SDS011;37554;50.362;7.568;2022-11-20T14:09:36;1.95;;;1.52;;
51475;SDS011;37554;50.362;7.568;2022-11-20T14:12:03;1.88;;;1.70;;
51475;SDS011;37554;50.362;7.568;2022-11-20T14:14:46;2.28;;;2.08;;
51475;SDS011;37554;50.362;7.568;2022-11-20T14:17:21;2.60;;;1.90;;
51475;SDS011;37554;50.362;7.568;2022-11-20T14:19:49;2.15;;;1.73;;
51475;SDS011;37554;50.362;7.568;2022-11-20T14:22:18;3.78;;;1.83;;
51475;SDS011;37554;50.362;7.568;2022-11-20T14:24:48;2.60;;;2.10;;
51475;SDS011;37554;50.362;7.568;2022-11-20T14:27:25;1.70;;;1.60;;
51475;SDS011;37554;50.362;7.568;2022-11-20T14:29:51;1.83;;;1.67;;
51475;SDS011;37554;50.362;7.568;2022-11-20T14:32:18;11.18;;;1.77;;
51475;SDS011;37554;50.362;7.568;2022-11-20T14:34:47;2.88;;;2.03;;
51475;SDS011;37554;50.362;7.568;2022-11-20T14:37:21;3.17;;;1.70;;
51475;SDS011;37554;50.362;7.568;2022-11-20T14:39:50;1.88;;;1.58;;
51475;SDS011;37554;50.362;7.568;2022-11-20T14:42:19;2.42;;;1.77;;
51475;SDS011;37554;50.362;7.568;2022-11-20T14:44:50;3.40;;;1.58;;
51475;SDS011;37554;50.362;7.568;2022-11-20T14:47:18;2.05;;;1.80;;
51475;SDS011;37554;50.362;7.568;2022-11-20T14:49:50;1.80;;;1.70;;
51475;SDS011;37554;50.362;7.568;2022-11-20T14:52:18;1.45;;;1.30;;
51475;SDS011;37554;50.362;7.568;2022-11-20T14:54:46;1.70;;;1.60;;
51475;SDS011;37554;50.362;7.568;2022-11-20T14:57:29;2.05;;;1.50;;
51475;SDS011;37554;50.362;7.568;2022-11-20T15:02:41;2.22;;;1.90;;
51475;SDS011;37554;50.362;7.568;2022-11-20T15:05:08;2.53;;;1.75;;
51475;SDS011;37554;50.362;7.568;2022-11-20T15:07:38;1.83;;;1.30;;
51475;SDS011;37554;50.362;7.568;2022-11-20T15:10:23;1.63;;;1.50;;
51475;SDS011;37554;50.362;7.568;2022-11-20T15:12:54;1.70;;;1.60;;
51475;SDS011;37554;50.362;7.568;2022-11-20T15:15:25;1.45;;;1.17;;
51475;SDS011;37554;50.362;7.568;2022-11-20T15:17:57;1.48;;;1.38;;
51475;SDS011;37554;50.362;7.568;2022-11-20T15:20:24;4.28;;;1.90;;
51475;SDS011;37554;50.362;7.568;2022-11-20T15:22:53;8.52;;;2.40;;
51475;SDS011;37554;50.362;7.568;2022-11-20T15:25:18;10.52;;;3.05;;
51475;SDS011;37554;50.362;7.568;2022-11-20T15:27:44;5.40;;;2.42;;
51475;SDS011;37554;50.362;7.568;2022-11-20T15:30:15;3.75;;;2.30;;
51475;SDS011;37554;50.362;7.568;2022-11-20T15:32:43;5.05;;;2.50;;
51475;SDS011;37554;50.362;7.568;2022-11-20T15:35:09;7.63;;;2.70;;
51475;SDS011;37554;50.362;7.568;2022-11-20T15:37:35;5.30;;;2.60;;
51475;SDS011;37554;50.362;7.568;2022-11-20T15:40:02;5.80;;;2.40;;
51475;SDS011;37554;50.362;7.568;2022-11-20T15:42:28;8.07;;;3.30;;
51475;SDS011;37554;50.362;7.568;2022-11-20T15:44:54;6.65;;;2.65;;
51475;SDS011;37554;50.362;7.568;2022-11-20T15:47:20;5.97;;;2.28;;
51475;SDS011;37554;50.362;7.568;2022-11-20T15:49:56;5.70;;;2.70;;
51475;SDS011;37554;50.362;7.568;2022-11-20T15:52:21;5.75;;;2.67;;
51475;SDS011;37554;50.362;7.568;2022-11-20T15:54:47;4.13;;;2.45;;
51475;SDS011;37554;50.362;7.568;2022-11-20T15:57:13;5.63;;;2.55;;
51475;SDS011;37554;50.362;7.568;2022-11-20T15:59:39;5.07;;;2.58;;
51475;SDS011;37554;50.362;7.568;2022-11-20T16:02:10;5.20;;;2.20;;
51475;SDS011;37554;50.362;7.568;2022-11-20T16:04:36;4.28;;;2.20;;
51475;SDS011;37554;50.362;7.568;2022-11-20T16:07:02;4.25;;;2.40;;
51475;SDS011;37554;50.362;7.568;2022-11-20T16:09:27;1.98;;;1.77;;
51475;SDS011;37554;50.362;7.568;2022-11-20T16:11:53;4.05;;;2.20;;
51475;SDS011;37554;50.362;7.568;2022-11-20T16:14:19;3.75;;;2.20;;
51475;SDS011;37554;50.362;7.568;2022-11-20T16:17:03;3.42;;;2.10;;
51475;SDS011;37554;50.362;7.568;2022-11-20T16:19:28;3.95;;;2.38;;
51475;SDS011;37554;50.362;7.568;2022-11-20T16:21:54;3.20;;;2.25;;
51475;SDS011;37554;50.362;7.568;2022-11-20T16:24:20;5.63;;;2.40;;
51475;SDS011;37554;50.362;7.568;2022-11-20T16:26:45;4.95;;;2.30;;
51475;SDS011;37554;50.362;7.568;2022-11-20T16:29:11;3.80;;;2.05;;
51475;SDS011;37554;50.362;7.568;2022-11-20T16:31:36;3.53;;;2.08;;
51475;SDS011;37554;50.362;7.568;2022-11-20T16:34:04;4.45;;;2.00;;
51475;SDS011;37554;50.362;7.568;2022-11-20T16:36:31;3.72;;;1.90;;
51475;SDS011;37554;50.362;7.568;2022-11-20T16:38:58;2.70;;;1.67;;